Time;durP1;ratioP1;P1;durP2;ratioP2;P2;SDS_P1;SDS_P2;PMS_P1;PMS_P2;Temp;Humidity;BMP_temperature;BMP_pressure;BME280_temperature;BME280_humidity;BME280_pressure;Samples;Min_cycle;Max_cycle;Signal;HPM_P1;HPM_P2
2023/10/09 00:03:12;;;;;;;1.10;0.73;;;15.10;99.90;;;;;;5111779;27;20524;-81
2023/10/09 00:05:45;;;;;;;9.83;1.33;;;15.20;99.90;;;;;;5111016;28;20446;-81
2023/10/09 00:08:16;;;;;;;2.20;1.40;;;15.20;99.90;;;;;;5111242;28;20504;-80
2023/10/09 00:10:49;;;;;;;12.70;1.30;;;15.20;99.90;;;;;;5111106;28;20434;-80
2023/10/09 00:13:16;;;;;;;8.00;1.43;;;15.20;99.90;;;;;;5111014;28;20459;-80
2023/10/09 00:15:43;;;;;;;4.57;1.03;;;15.20;99.90;;;;;;5110953;28;20458;-80
2023/10/09 00:18:12;;;;;;;1.20;0.70;;;15.20;99.90;;;;;;5110589;28;20794;-80
2023/10/09 00:20:42;;;;;;;18.03;1.63;;;15.20;99.90;;;;;;5110848;28;20443;-80
2023/10/09 00:23:15;;;;;;;1.27;1.07;;;15.20;99.90;;;;;;5110870;28;20459;-80
2023/10/09 00:26:06;;;;;;;10.03;1.60;;;15.20;99.90;;;;;;5110886;28;20431;-80
2023/10/09 00:28:34;;;;;;;2.63;1.33;;;15.20;99.90;;;;;;5110514;28;20458;-80
2023/10/09 00:31:04;;;;;;;13.90;1.63;;;15.20;99.90;;;;;;5111083;28;20804;-80
2023/10/09 00:33:33;;;;;;;7.13;1.30;;;15.10;99.90;;;;;;5110319;28;21072;-80
2023/10/09 00:36:09;;;;;;;9.37;1.40;;;15.10;99.90;;;;;;5110637;28;20456;-80
2023/10/09 00:38:38;;;;;;;2.20;0.90;;;15.20;99.90;;;;;;5110635;28;20431;-80
2023/10/09 00:41:11;;;;;;;5.97;1.17;;;15.10;99.90;;;;;;5110549;28;20443;-80
2023/10/09 00:43:42;;;;;;;6.33;1.03;;;15.20;99.90;;;;;;5110402;28;20504;-80
2023/10/09 00:46:23;;;;;;;10.13;1.70;;;15.20;99.90;;;;;;5110125;28;20431;-80
2023/10/09 00:48:55;;;;;;;5.00;1.80;;;15.10;99.90;;;;;;5110448;28;20424;-80
2023/10/09 00:51:24;;;;;;;6.13;1.73;;;15.20;99.90;;;;;;5110255;28;20528;-80
2023/10/09 00:53:53;;;;;;;1.20;1.10;;;15.20;99.90;;;;;;5110248;28;20549;-80
2023/10/09 00:56:28;;;;;;;6.93;2.27;;;15.20;99.90;;;;;;5109887;28;20450;-80
2023/10/09 00:59:06;;;;;;;2.20;1.10;;;15.20;99.90;;;;;;5110503;28;20439;-80
2023/10/09 01:01:36;;;;;;;2.30;1.57;;;15.20;99.90;;;;;;5109880;28;20475;-80
2023/10/09 01:04:06;;;;;;;3.43;0.90;;;15.20;99.90;;;;;;5110038;28;20517;-80
2023/10/09 01:06:42;;;;;;;3.20;1.40;;;15.10;99.90;;;;;;5109703;28;20447;-80
2023/10/09 01:09:10;;;;;;;5.97;1.60;;;15.10;99.90;;;;;;5110044;28;20514;-80
2023/10/09 01:11:47;;;;;;;8.40;1.13;;;15.10;99.90;;;;;;5109900;28;20516;-80
2023/10/09 01:14:14;;;;;;;15.50;1.60;;;15.10;99.90;;;;;;5098000;28;20467;-80
2023/10/09 01:16:43;;;;;;;6.30;1.77;;;15.10;99.90;;;;;;5096226;28;20543;-80
2023/10/09 01:19:20;;;;;;;8.40;1.10;;;15.00;99.90;;;;;;5095927;28;20936;-80
2023/10/09 01:21:48;;;;;;;7.90;1.60;;;15.10;99.90;;;;;;5096226;28;20434;-80
2023/10/09 01:24:19;;;;;;;4.03;1.77;;;15.00;99.90;;;;;;5096003;28;20521;-80
2023/10/09 01:26:47;;;;;;;10.27;0.87;;;15.10;99.90;;;;;;5096122;28;20480;-81
2023/10/09 01:29:16;;;;;;;8.90;1.57;;;15.00;99.90;;;;;;5095998;28;20554;-80
2023/10/09 01:31:46;;;;;;;5.03;1.20;;;15.10;99.90;;;;;;5095906;28;20483;-80
2023/10/09 01:34:14;;;;;;;7.33;1.20;;;15.00;99.90;;;;;;5096153;28;20468;-80
2023/10/09 01:36:41;;;;;;;10.80;1.90;;;15.00;99.90;;;;;;5095551;28;20477;-81
2023/10/09 01:39:21;;;;;;;3.40;1.23;;;15.10;99.90;;;;;;5095544;28;20446;-80
2023/10/09 01:41:51;;;;;;;2.90;1.13;;;15.10;99.90;;;;;;5095833;28;20424;-81
2023/10/09 01:44:18;;;;;;;1.90;0.90;;;15.10;99.90;;;;;;5095689;28;20459;-80
2023/10/09 01:46:46;;;;;;;5.63;1.27;;;15.20;99.90;;;;;;5095710;28;20443;-81
2023/10/09 01:49:21;;;;;;;3.10;1.40;;;15.30;99.90;;;;;;5095269;28;20941;-80
2023/10/09 01:51:48;;;;;;;12.57;1.17;;;15.20;99.90;;;;;;5095552;28;20467;-81
2023/10/09 01:54:33;;;;;;;2.40;0.70;;;15.30;99.90;;;;;;5095460;28;20503;-81
2023/10/09 01:57:05;;;;;;;3.80;1.40;;;15.20;99.90;;;;;;5095597;28;20436;-80
2023/10/09 01:59:33;;;;;;;9.20;1.57;;;15.30;99.90;;;;;;5095482;28;20433;-80
2023/10/09 02:02:10;;;;;;;13.60;1.60;;;15.30;99.90;;;;;;5094993;28;20520;-81
2023/10/09 02:04:36;;;;;;;2.83;0.67;;;15.30;99.90;;;;;;5095596;28;20515;-80
2023/10/09 02:07:07;;;;;;;4.17;1.10;;;15.30;99.90;;;;;;5095285;28;20436;-80
2023/10/09 02:09:35;;;;;;;3.90;0.90;;;15.40;99.90;;;;;;5095282;28;20443;-80
2023/10/09 02:12:03;;;;;;;4.43;1.10;;;15.40;99.90;;;;;;5095032;28;20598;-80
2023/10/09 02:14:30;;;;;;;3.03;0.77;;;15.40;99.90;;;;;;5094783;28;20950;-81
2023/10/09 02:17:03;;;;;;;7.10;1.73;;;15.40;99.90;;;;;;5094789;28;20971;-81
2023/10/09 02:19:34;;;;;;;9.30;1.60;;;15.40;99.90;;;;;;5095130;28;20456;-81
2023/10/09 02:22:11;;;;;;;4.40;1.40;;;15.40;99.90;;;;;;5094982;28;20428;-81
2023/10/09 02:24:51;;;;;;;0.73;0.73;;;15.30;99.90;;;;;;5093906;28;20476;-81
2023/10/09 02:30:11;;;;;;;15.43;1.50;;;15.30;99.90;;;;;;5094663;28;20455;-80
2023/10/09 02:32:39;;;;;;;4.13;1.13;;;15.30;99.90;;;;;;5094698;28;20495;-81
2023/10/09 02:35:18;;;;;;;3.80;1.30;;;15.30;99.90;;;;;;5094762;28;20451;-81
2023/10/09 02:37:46;;;;;;;5.27;1.40;;;15.20;99.90;;;;;;5094769;28;20455;-80
2023/10/09 02:40:22;;;;;;;2.10;0.73;;;15.10;99.90;;;;;;5094610;28;20444;-80
2023/10/09 02:42:51;;;;;;;10.53;1.53;;;15.00;99.90;;;;;;5094310;28;20544;-80
2023/10/09 02:45:18;;;;;;;10.80;1.33;;;15.00;99.90;;;;;;5094533;28;20523;-80
2023/10/09 02:47:48;;;;;;;4.60;0.73;;;15.00;99.90;;;;;;5094500;28;20873;-81
2023/10/09 02:50:21;;;;;;;6.97;1.27;;;15.10;99.90;;;;;;5094422;28;20554;-81
2023/10/09 02:52:52;;;;;;;2.93;1.00;;;15.00;99.90;;;;;;5094027;28;21000;-80
2023/10/09 02:55:26;;;;;;;7.60;1.60;;;15.00;99.90;;;;;;5094839;28;20433;-80
2023/10/09 02:58:06;;;;;;;7.90;1.37;;;15.00;99.90;;;;;;5094104;28;20442;-80
2023/10/09 03:00:36;;;;;;;3.83;1.50;;;15.00;99.90;;;;;;5094301;28;20436;-80
2023/10/09 03:03:06;;;;;;;9.17;1.40;;;15.00;99.90;;;;;;5093640;28;20486;-80
2023/10/09 03:05:33;;;;;;;4.27;1.37;;;15.00;99.90;;;;;;5094276;28;20801;-80
2023/10/09 03:08:00;;;;;;;2.40;1.20;;;15.00;99.90;;;;;;5094131;28;20444;-80
2023/10/09 03:10:26;;;;;;;1.50;1.10;;;15.00;99.90;;;;;;5094101;28;20859;-80
2023/10/09 03:12:54;;;;;;;8.10;1.50;;;15.10;99.90;;;;;;5093904;28;20489;-80
2023/10/09 03:15:23;;;;;;;5.10;1.00;;;15.10;99.90;;;;;;5094021;28;20447;-80
2023/10/09 03:17:49;;;;;;;1.03;0.60;;;15.20;99.90;;;;;;5093908;28;20451;-80
2023/10/09 03:20:18;;;;;;;1.23;0.90;;;15.10;99.90;;;;;;5093937;28;20459;-80
2023/10/09 03:22:47;;;;;;;5.83;1.57;;;15.20;99.90;;;;;;5093833;28;20499;-80
2023/10/09 03:25:16;;;;;;;4.20;1.57;;;15.20;99.90;;;;;;5093867;28;20452;-81
2023/10/09 03:27:45;;;;;;;3.80;1.40;;;15.20;99.90;;;;;;5093533;28;20945;-81
2023/10/09 03:30:16;;;;;;;2.93;1.00;;;15.20;99.90;;;;;;5093456;28;20542;-80
2023/10/09 03:32:48;;;;;;;6.83;2.20;;;15.20;99.90;;;;;;5093650;28;20490;-81
2023/10/09 03:35:23;;;;;;;1.30;0.80;;;15.10;99.90;;;;;;5093720;28;20437;-81
2023/10/09 03:37:51;;;;;;;2.70;1.10;;;15.00;99.90;;;;;;5093189;28;21012;-81
2023/10/09 03:40:17;;;;;;;2.83;0.80;;;15.00;99.90;;;;;;5093607;28;20444;-80
2023/10/09 03:42:45;;;;;;;5.43;0.80;;;14.90;99.90;;;;;;5093494;28;20464;-80
2023/10/09 03:45:24;;;;;;;5.77;1.90;;;14.90;99.90;;;;;;5093592;28;20794;-81
2023/10/09 03:47:57;;;;;;;1.20;0.90;;;14.80;99.90;;;;;;5093621;28;20424;-81
2023/10/09 03:50:35;;;;;;;4.53;1.30;;;14.80;99.90;;;;;;5093543;28;20429;-81
2023/10/09 03:53:06;;;;;;;2.10;0.73;;;14.70;99.90;;;;;;5093045;28;20908;-81
2023/10/09 03:55:33;;;;;;;10.23;1.27;;;14.80;99.90;;;;;;5093706;28;20432;-81
2023/10/09 03:58:00;;;;;;;6.20;1.40;;;14.80;99.90;;;;;;5093376;28;20478;-81
2023/10/09 04:00:30;;;;;;;8.70;1.07;;;14.80;99.90;;;;;;5093391;28;20818;-81
2023/10/09 04:02:59;;;;;;;4.80;2.50;;;14.80;99.90;;;;;;5093020;28;20475;-81
2023/10/09 04:05:28;;;;;;;3.20;0.90;;;14.80;99.90;;;;;;5093325;28;20502;-81
2023/10/09 04:07:58;;;;;;;5.17;1.10;;;14.90;99.90;;;;;;5093296;28;20432;-81
2023/10/09 04:10:43;;;;;;;2.67;1.70;;;14.90;99.90;;;;;;5094126;28;20451;-81
2023/10/09 04:13:12;;;;;;;4.00;1.17;;;14.90;99.90;;;;;;5093227;28;20483;-81
2023/10/09 04:15:42;;;;;;;2.27;0.80;;;14.90;99.90;;;;;;5093292;28;20474;-81
2023/10/09 04:18:15;;;;;;;5.60;1.23;;;14.90;99.90;;;;;;5092999;28;20935;-80
2023/10/09 04:21:08;;;;;;;3.93;1.37;;;14.90;99.90;;;;;;5093265;28;20460;-81
2023/10/09 04:23:59;;;;;;;7.03;1.27;;;15.00;99.90;;;;;;5092714;28;20995;-81
2023/10/09 04:26:24;;;;;;;12.10;1.67;;;14.90;99.90;;;;;;5092766;28;20447;-81
2023/10/09 04:28:52;;;;;;;3.87;0.93;;;14.90;99.90;;;;;;5093116;28;20481;-81
2023/10/09 04:31:21;;;;;;;1.30;0.80;;;14.90;99.90;;;;;;5093155;28;20448;-80
2023/10/09 04:34:21;;;;;;;5.43;1.00;;;14.90;99.90;;;;;;5092925;28;20566;-80
2023/10/09 04:36:49;;;;;;;4.67;0.70;;;14.80;99.90;;;;;;5092583;28;20551;-81
2023/10/09 04:39:35;;;;;;;2.80;0.77;;;14.80;99.90;;;;;;5093095;28;20429;-81
2023/10/09 04:47:49;;;;;;;2.93;1.27;;;14.70;99.90;;;;;;5049943;28;20460;-81
2023/10/09 04:53:22;;;;;;;2.43;1.30;;;14.60;99.90;;;;;;5096359;28;20570;-81
2023/10/09 04:55:53;;;;;;;4.17;1.03;;;14.60;99.90;;;;;;5096237;28;20548;-81
2023/10/09 04:58:25;;;;;;;5.30;1.87;;;14.60;99.90;;;;;;5096700;28;20432;-81
2023/10/09 05:01:04;;;;;;;3.10;1.27;;;14.50;99.90;;;;;;5096398;28;20432;-80
2023/10/09 05:03:44;;;;;;;3.87;1.77;;;14.50;99.90;;;;;;5096193;28;20964;-80
2023/10/09 05:06:42;;;;;;;4.47;1.50;;;14.50;99.90;;;;;;5096577;28;20426;-81
2023/10/09 05:09:09;;;;;;;1.57;1.43;;;14.40;99.90;;;;;;5096490;28;20428;-80
2023/10/09 05:11:53;;;;;;;3.43;1.20;;;14.60;99.90;;;;;;5096056;28;20451;-80
2023/10/09 05:14:26;;;;;;;3.80;1.00;;;14.40;99.90;;;;;;5096342;28;20467;-80
2023/10/09 05:17:01;;;;;;;9.53;2.00;;;14.40;99.90;;;;;;5096329;28;20802;-80
2023/10/09 05:19:41;;;;;;;9.70;1.73;;;14.30;99.90;;;;;;5095973;28;20427;-80
2023/10/09 05:22:16;;;;;;;12.63;1.77;;;14.30;99.90;;;;;;5096173;28;20432;-80
2023/10/09 05:24:45;;;;;;;4.97;1.47;;;14.30;99.90;;;;;;5096175;28;20440;-80
2023/10/09 05:27:45;;;;;;;15.33;1.10;;;14.40;99.90;;;;;;5096092;28;20448;-80
2023/10/09 05:32:49;;;;;;;2.00;0.77;;;14.30;99.90;;;;;;5092994;28;20574;-80
2023/10/09 05:35:15;;;;;;;1.23;0.60;;;14.40;99.90;;;;;;5095914;28;20444;-80
2023/10/09 05:37:48;;;;;;;1.83;1.23;;;14.40;99.90;;;;;;5095904;28;20505;-81
2023/10/09 05:40:23;;;;;;;7.53;1.10;;;14.40;99.90;;;;;;5095923;28;20511;-81
2023/10/09 05:42:59;;;;;;;0.90;0.70;;;14.40;99.90;;;;;;5095477;28;20538;-81
2023/10/09 05:51:44;;;;;;;4.53;0.87;;;14.50;99.90;;;;;;5090846;27;20520;-80
2023/10/09 05:58:42;;;;;;;1.53;0.70;;;14.70;99.90;;;;;;5090571;28;20436;-81
2023/10/09 06:05:50;;;;;;;2.50;1.00;;;14.80;99.90;;;;;;5090704;28;20464;-80
2023/10/09 06:08:24;;;;;;;4.63;1.10;;;14.80;99.90;;;;;;5090637;28;20424;-80
2023/10/09 06:11:05;;;;;;;2.90;0.80;;;14.80;99.90;;;;;;5090594;28;20423;-81
2023/10/09 06:13:38;;;;;;;2.30;1.00;;;14.90;99.90;;;;;;5090179;28;20991;-81
2023/10/09 06:16:19;;;;;;;2.37;1.67;;;14.80;99.90;;;;;;5090501;28;20428;-81
2023/10/09 06:19:07;;;;;;;2.43;0.93;;;14.80;99.90;;;;;;5090445;28;20428;-81
2023/10/09 06:21:39;;;;;;;5.30;1.43;;;14.80;99.90;;;;;;5090608;28;20584;-80
2023/10/09 06:24:14;;;;;;;6.13;1.60;;;14.80;99.90;;;;;;5090267;28;20500;-81
2023/10/09 06:26:51;;;;;;;7.63;4.13;;;14.80;99.90;;;;;;5090258;28;20424;-81
2023/10/09 06:29:33;;;;;;;7.13;1.67;;;14.90;99.90;;;;;;5090208;28;20434;-81
2023/10/09 06:32:16;;;;;;;5.17;0.70;;;14.90;99.90;;;;;;5090117;28;20428;-81
2023/10/09 06:34:45;;;;;;;6.67;1.10;;;14.90;99.90;;;;;;5090109;28;20527;-81
2023/10/09 06:37:34;;;;;;;2.17;0.97;;;15.00;99.90;;;;;;5090020;28;20447;-81
2023/10/09 06:41:23;;;;;;;3.07;1.60;;;15.20;99.90;;;;;;5089959;28;20464;-81
2023/10/09 06:43:15;;;;;;;1.10;0.80;;;15.10;99.90;;;;;;5089322;28;20464;-81
2023/10/09 06:45:54;;;;;;;4.83;1.00;;;15.20;99.90;;;;;;5089615;28;20428;-81
2023/10/09 06:51:12;;;;;;;2.63;0.73;;;15.30;99.90;;;;;;5089402;28;20463;-81
2023/10/09 06:57:04;;;;;;;6.57;0.93;;;15.40;99.90;;;;;;5089850;28;20412;-83
2023/10/09 06:59:16;;;;;;;3.07;1.27;;;15.40;99.90;;;;;;5089090;28;20437;-82
2023/10/09 07:01:45;;;;;;;4.23;1.53;;;15.50;99.90;;;;;;5082298;28;20449;-82
2023/10/09 07:04:18;;;;;;;4.10;1.53;;;15.50;99.90;;;;;;5075687;28;20465;-83
2023/10/09 07:06:52;;;;;;;5.20;1.23;;;15.50;99.90;;;;;;5075755;28;20464;-82
2023/10/09 07:09:21;;;;;;;7.90;1.23;;;15.50;99.90;;;;;;5075644;28;20903;-82
2023/10/09 07:12:03;;;;;;;2.70;1.40;;;15.50;99.90;;;;;;5075634;28;21007;-83
2023/10/09 07:17:21;;;;;;;5.53;1.60;;;15.60;99.90;;;;;;5075950;28;20764;-82
2023/10/09 07:20:08;;;;;;;4.73;0.80;;;15.70;99.90;;;;;;5075743;28;20464;-82
2023/10/09 07:22:52;;;;;;;1.07;0.70;;;15.70;99.90;;;;;;5075631;28;20463;-83
2023/10/09 07:25:40;;;;;;;1.40;0.60;;;15.80;99.90;;;;;;5075654;28;20448;-83
2023/10/09 07:28:28;;;;;;;4.40;1.00;;;15.90;99.90;;;;;;5075636;28;20436;-82
2023/10/09 07:30:58;;;;;;;2.57;1.00;;;16.00;99.90;;;;;;5075594;28;20425;-83
2023/10/09 07:33:33;;;;;;;2.93;0.90;;;16.00;99.90;;;;;;5075474;28;20514;-83
2023/10/09 07:36:06;;;;;;;3.10;1.17;;;16.10;99.90;;;;;;5075155;28;20437;-83
2023/10/09 07:38:35;;;;;;;11.40;0.93;;;16.20;99.90;;;;;;5075429;28;20433;-83
2023/10/09 07:41:33;;;;;;;3.87;0.70;;;16.30;99.90;;;;;;5074891;28;20480;-83
2023/10/09 07:43:58;;;;;;;6.23;0.93;;;16.30;99.90;;;;;;5074805;28;20882;-83
2023/10/09 07:46:33;;;;;;;7.10;0.97;;;16.40;99.90;;;;;;5075285;28;20452;-83
2023/10/09 07:49:08;;;;;;;9.43;1.53;;;16.40;99.90;;;;;;5074810;28;20431;-83
2023/10/09 07:51:36;;;;;;;1.70;0.63;;;16.40;99.90;;;;;;5075275;28;20452;-83
2023/10/09 07:54:07;;;;;;;7.00;0.97;;;16.40;99.90;;;;;;5075044;28;20457;-83
2023/10/09 07:56:38;;;;;;;2.20;0.80;;;16.40;99.90;;;;;;5074991;28;20445;-83
2023/10/09 07:59:10;;;;;;;0.87;0.80;;;16.40;99.90;;;;;;5075085;28;20451;-84
2023/10/09 08:01:38;;;;;;;6.47;1.63;;;16.40;99.90;;;;;;5074648;28;20907;-83
2023/10/09 08:04:10;;;;;;;3.43;0.90;;;16.40;99.90;;;;;;5074840;28;20469;-83
2023/10/09 08:06:42;;;;;;;5.23;0.80;;;16.40;99.90;;;;;;5074909;28;20428;-83
2023/10/09 08:09:28;;;;;;;0.80;0.80;;;16.40;99.90;;;;;;5074898;28;20433;-83
2023/10/09 08:14:45;;;;;;;4.37;1.10;;;16.40;99.90;;;;;;5073752;28;20412;-84
2023/10/09 08:17:13;;;;;;;3.57;1.37;;;16.50;99.90;;;;;;5074581;28;20820;-84
2023/10/09 08:19:53;;;;;;;3.13;1.10;;;16.60;99.90;;;;;;5074512;28;20502;-84
2023/10/09 08:25:07;;;;;;;4.90;1.47;;;16.70;99.90;;;;;;5074621;28;20444;-84
2023/10/09 08:30:48;;;;;;;20.67;1.17;;;16.80;99.90;;;;;;5068844;28;20441;-84
2023/10/09 08:36:04;;;;;;;3.57;1.07;;;16.90;99.90;;;;;;5074408;28;20921;-82
2023/10/09 08:38:34;;;;;;;0.87;0.70;;;16.90;99.90;;;;;;5073961;28;20944;-86
2023/10/09 08:41:15;;;;;;;1.83;0.80;;;17.10;99.90;;;;;;5074161;28;20719;-84
2023/10/09 08:43:50;;;;;;;1.53;0.90;;;17.10;99.90;;;;;;5074110;28;20498;-84
2023/10/09 08:46:20;;;;;;;2.53;1.20;;;17.20;99.90;;;;;;5074127;28;20440;-84
2023/10/09 08:48:48;;;;;;;8.73;1.20;;;17.30;99.90;;;;;;5074085;28;20436;-84
2023/10/09 08:51:16;;;;;;;6.93;0.73;;;17.30;99.90;;;;;;5073680;28;20996;-84
2023/10/09 08:53:45;;;;;;;5.40;0.87;;;17.40;99.90;;;;;;5073521;28;21056;-83
2023/10/09 08:56:14;;;;;;;3.23;0.90;;;17.40;99.90;;;;;;5073917;28;20452;-84
2023/10/09 08:58:41;;;;;;;3.07;0.87;;;17.40;99.90;;;;;;5073828;28;20452;-87
2023/10/09 09:01:08;;;;;;;8.17;1.00;;;17.50;99.90;;;;;;5073480;28;20839;-83
2023/10/09 09:03:44;;;;;;;5.80;0.80;;;17.60;99.90;;;;;;5073750;28;20461;-84
2023/10/09 09:06:11;;;;;;;2.60;1.33;;;17.60;99.90;;;;;;5074011;28;20476;-84
2023/10/09 09:08:38;;;;;;;4.43;1.17;;;17.70;99.90;;;;;;5073424;28;20449;-84
2023/10/09 09:11:12;;;;;;;2.70;1.00;;;17.80;99.90;;;;;;5073723;28;20440;-84
2023/10/09 09:13:48;;;;;;;5.10;0.73;;;17.90;99.90;;;;;;5073618;28;20465;-84
2023/10/09 09:16:16;;;;;;;3.30;0.73;;;17.90;99.90;;;;;;5073317;28;20437;-84
2023/10/09 09:19:03;;;;;;;1.73;0.80;;;17.90;99.90;;;;;;5073606;28;20440;-84
2023/10/09 09:21:37;;;;;;;12.53;1.13;;;18.00;99.90;;;;;;5073563;28;20504;-84
2023/10/09 09:24:14;;;;;;;1.20;0.90;;;18.10;99.90;;;;;;5072938;28;20992;-84
2023/10/09 09:26:45;;;;;;;12.13;1.77;;;18.10;99.90;;;;;;5073435;28;20440;-84
2023/10/09 09:29:15;;;;;;;3.87;1.90;;;18.20;99.90;;;;;;5073161;28;20933;-84
2023/10/09 09:31:53;;;;;;;2.57;1.13;;;18.50;99.90;;;;;;5073105;28;20927;-85
2023/10/09 09:34:25;;;;;;;8.67;1.60;;;18.30;99.90;;;;;;5074211;28;20452;-84
2023/10/09 09:36:54;;;;;;;6.40;1.30;;;18.40;99.90;;;;;;5073386;28;20925;-84
2023/10/09 09:39:28;;;;;;;2.70;0.80;;;18.50;99.90;;;;;;5073240;28;20444;-84
2023/10/09 09:42:03;;;;;;;9.03;1.23;;;18.50;99.90;;;;;;5073179;28;20472;-84
2023/10/09 09:44:33;;;;;;;4.17;1.27;;;18.60;99.90;;;;;;5073154;28;20913;-84
2023/10/09 09:47:00;;;;;;;5.97;0.80;;;18.70;99.90;;;;;;5073328;28;20449;-84
2023/10/09 09:49:32;;;;;;;2.20;0.80;;;18.80;99.90;;;;;;5072815;28;20840;-84
2023/10/09 09:52:02;;;;;;;11.30;1.40;;;19.00;99.90;;;;;;5073299;28;20445;-84
2023/10/09 09:54:33;;;;;;;4.57;1.27;;;19.10;99.90;;;;;;5073021;28;20929;-84
2023/10/09 09:57:08;;;;;;;12.33;1.40;;;19.20;99.90;;;;;;5073220;28;20852;-84
2023/10/09 09:59:49;;;;;;;5.80;1.03;;;19.40;99.90;;;;;;5073181;28;20854;-84
2023/10/09 10:02:22;;;;;;;3.10;0.80;;;19.50;99.90;;;;;;5073089;28;20527;-83
2023/10/09 10:04:56;;;;;;;8.10;1.17;;;19.80;99.90;;;;;;5073165;28;20800;-84
2023/10/09 10:07:25;;;;;;;10.13;2.00;;;19.90;99.90;;;;;;5073152;28;20804;-84
2023/10/09 10:09:57;;;;;;;9.40;1.10;;;20.10;99.90;;;;;;5072717;28;20440;-84
2023/10/09 10:13:03;;;;;;;9.00;1.50;;;20.30;99.90;;;;;;5072643;28;20460;-84
2023/10/09 10:16:02;;;;;;;3.03;1.13;;;20.50;99.90;;;;;;5011088;28;20856;-84
2023/10/09 10:18:35;;;;;;;3.97;1.10;;;20.90;99.90;;;;;;5011119;28;20423;-84
2023/10/09 10:21:16;;;;;;;7.73;1.80;;;21.20;99.90;;;;;;5056510;28;20580;-83
2023/10/09 10:23:46;;;;;;;4.53;1.43;;;21.40;99.90;;;;;;5073517;28;20456;-84
2023/10/09 10:26:25;;;;;;;10.73;1.63;;;21.60;99.90;;;;;;5073120;28;20429;-83
2023/10/09 10:29:28;;;;;;;7.33;0.90;;;21.80;99.90;;;;;;5072639;28;20803;-83
2023/10/09 10:31:57;;;;;;;6.93;1.30;;;22.00;99.90;;;;;;5073286;28;20618;-84
2023/10/09 10:34:25;;;;;;;4.57;1.30;;;22.40;99.90;;;;;;5072693;28;20425;-84
2023/10/09 10:36:59;;;;;;;6.07;2.87;;;22.60;99.90;;;;;;5074230;28;20448;-84
2023/10/09 10:42:09;;;;;;;4.07;1.03;;;22.80;99.90;;;;;;5076068;28;20475;-84
2023/10/09 10:44:41;;;;;;;2.33;1.37;;;22.90;99.90;;;;;;5076543;28;20233;-84
2023/10/09 10:47:22;;;;;;;9.40;1.00;;;22.90;99.90;;;;;;5076904;28;20498;-84
2023/10/09 10:49:50;;;;;;;3.63;1.70;;;22.80;99.90;;;;;;5076320;28;20898;-84
2023/10/09 10:52:35;;;;;;;6.53;1.33;;;22.80;99.90;;;;;;5076098;28;20479;-84
2023/10/09 10:55:48;;;;;;;3.77;1.33;;;22.70;99.90;;;;;;5076387;28;20615;-84
2023/10/09 10:58:23;;;;;;;16.70;1.23;;;22.80;99.90;;;;;;5075738;28;20663;-84
2023/10/09 11:03:54;;;;;;;3.50;1.23;;;22.70;99.90;;;;;;5075831;28;20459;-82
2023/10/09 11:06:35;;;;;;;2.17;0.87;;;22.70;99.90;;;;;;5076154;28;20516;-84
2023/10/09 11:09:10;;;;;;;11.27;1.10;;;22.50;99.90;;;;;;5076075;28;20186;-81
2023/10/09 11:11:46;;;;;;;1.63;0.83;;;22.30;99.90;;;;;;5076104;28;20477;-84
2023/10/09 11:14:15;;;;;;;5.90;1.10;;;22.20;99.90;;;;;;5075865;28;20475;-84
2023/10/09 11:16:47;;;;;;;7.00;1.60;;;22.20;99.90;;;;;;5075908;28;20202;-84
2023/10/09 11:19:28;;;;;;;8.00;1.30;;;22.10;99.90;;;;;;5075860;28;20194;-84
2023/10/09 11:22:24;;;;;;;6.03;1.20;;;22.20;99.90;;;;;;5075466;28;20471;-85
2023/10/09 11:25:01;;;;;;;5.60;1.90;;;22.30;99.90;;;;;;5075304;28;20436;-84
2023/10/09 11:27:32;;;;;;;13.50;1.17;;;22.20;99.90;;;;;;5075444;28;20971;-84
2023/10/09 11:30:05;;;;;;;2.03;1.10;;;22.30;99.90;;;;;;5075695;28;20433;-83
2023/10/09 11:32:32;;;;;;;2.93;1.17;;;22.30;99.90;;;;;;5075582;28;20251;-84
2023/10/09 11:35:11;;;;;;;9.60;1.13;;;22.20;99.90;;;;;;5075557;28;20440;-84
2023/10/09 11:37:42;;;;;;;5.03;1.53;;;22.30;99.90;;;;;;5075288;28;20795;-84
2023/10/09 11:40:32;;;;;;;8.20;1.50;;;22.30;99.90;;;;;;5075511;28;20425;-84
2023/10/09 11:43:03;;;;;;;1.73;0.90;;;22.30;99.90;;;;;;5075558;28;20222;-84
2023/10/09 11:45:29;;;;;;;2.97;1.17;;;22.20;99.90;;;;;;5075279;28;20428;-84
2023/10/09 11:47:59;;;;;;;2.93;1.10;;;22.10;99.90;;;;;;5074993;28;20460;-84
2023/10/09 11:50:42;;;;;;;6.57;1.00;;;22.00;99.90;;;;;;5074882;28;20484;-84
2023/10/09 11:53:17;;;;;;;4.30;1.23;;;21.90;99.90;;;;;;5075338;28;20465;-84
2023/10/09 11:55:48;;;;;;;2.10;1.10;;;21.80;99.90;;;;;;5075142;28;20493;-84
2023/10/09 11:58:22;;;;;;;3.13;1.03;;;21.70;99.90;;;;;;5074846;28;20933;-84
2023/10/09 12:00:51;;;;;;;2.87;0.80;;;21.50;99.90;;;;;;5075004;28;20483;-84
2023/10/09 12:03:21;;;;;;;2.40;0.70;;;21.60;99.90;;;;;;5074963;28;20868;-84
2023/10/09 12:05:48;;;;;;;5.33;1.03;;;21.40;99.90;;;;;;5074656;28;20906;-84
2023/10/09 12:08:16;;;;;;;3.33;1.87;;;21.30;99.90;;;;;;5074892;28;20451;-83
2023/10/09 12:10:44;;;;;;;6.40;1.03;;;21.20;99.90;;;;;;5074883;28;20543;-84
2023/10/09 12:13:12;;;;;;;3.70;1.20;;;21.10;99.90;;;;;;5074592;28;20456;-84
2023/10/09 12:15:39;;;;;;;2.47;1.10;;;21.10;99.90;;;;;;5074753;28;20452;-84
2023/10/09 12:18:14;;;;;;;6.50;1.20;;;21.00;99.90;;;;;;5074687;28;20495;-84
2023/10/09 12:20:42;;;;;;;6.70;1.50;;;21.00;99.90;;;;;;5074414;28;20898;-84
2023/10/09 12:23:13;;;;;;;7.40;1.30;;;21.00;99.90;;;;;;5074498;28;20456;-84
2023/10/09 12:25:40;;;;;;;2.70;1.00;;;21.10;99.90;;;;;;5074320;28;20470;-83
2023/10/09 12:28:12;;;;;;;3.53;1.30;;;21.20;99.90;;;;;;5074519;28;20449;-83
2023/10/09 12:30:41;;;;;;;6.37;1.43;;;21.30;99.90;;;;;;5074452;28;20468;-84
2023/10/09 12:33:09;;;;;;;5.37;1.00;;;21.40;99.90;;;;;;5074008;28;20969;-83
2023/10/09 12:35:40;;;;;;;2.20;0.63;;;21.40;99.90;;;;;;5074459;28;20476;-84
2023/10/09 12:38:12;;;;;;;8.80;1.07;;;21.60;99.90;;;;;;5073985;28;20478;-83
2023/10/09 12:40:41;;;;;;;2.40;1.17;;;21.50;99.90;;;;;;5074507;28;20429;-83
2023/10/09 12:43:15;;;;;;;8.87;1.00;;;21.50;99.90;;;;;;5074036;28;20484;-83
2023/10/09 12:45:44;;;;;;;6.07;1.30;;;21.60;99.90;;;;;;5073881;28;20424;-84
2023/10/09 12:48:12;;;;;;;7.00;1.17;;;21.70;99.90;;;;;;5074106;28;20448;-84
2023/10/09 12:50:41;;;;;;;2.73;1.17;;;21.80;99.90;;;;;;5073669;28;20563;-84
2023/10/09 12:53:09;;;;;;;6.90;1.47;;;21.90;99.90;;;;;;5074015;28;20461;-83
2023/10/09 12:55:40;;;;;;;14.57;1.27;;;22.00;99.90;;;;;;5073865;28;20429;-84
2023/10/09 12:58:07;;;;;;;4.90;1.13;;;22.00;99.90;;;;;;5073650;28;20906;-84
2023/10/09 13:00:37;;;;;;;4.73;1.33;;;22.10;99.90;;;;;;5073099;28;20431;-84
2023/10/09 13:03:16;;;;;;;8.50;1.77;;;22.10;99.90;;;;;;5073371;28;20574;-84
2023/10/09 13:05:51;;;;;;;2.30;1.00;;;22.20;99.90;;;;;;5073834;28;20463;-84
2023/10/09 13:08:21;;;;;;;2.73;0.90;;;22.30;99.90;;;;;;5073489;28;21004;-84
2023/10/09 13:10:49;;;;;;;9.23;1.40;;;22.40;99.90;;;;;;5073459;28;20878;-84
2023/10/09 13:13:16;;;;;;;3.27;1.70;;;22.40;99.90;;;;;;5073658;28;20501;-83
2023/10/09 13:15:43;;;;;;;8.17;1.20;;;22.40;99.90;;;;;;5073425;28;20945;-84
2023/10/09 13:18:12;;;;;;;4.40;1.00;;;22.40;99.90;;;;;;5073655;28;20445;-84
2023/10/09 13:20:39;;;;;;;6.20;1.17;;;22.40;99.90;;;;;;5073577;28;20495;-84
2023/10/09 13:23:07;;;;;;;3.13;1.07;;;22.30;99.90;;;;;;5073440;28;20492;-84
2023/10/09 13:25:39;;;;;;;8.00;1.10;;;22.20;99.90;;;;;;5073272;28;20928;-84
2023/10/09 13:28:06;;;;;;;5.87;0.90;;;22.20;99.90;;;;;;5073655;28;20529;-84
2023/10/09 13:30:39;;;;;;;4.90;1.47;;;22.10;99.60;;;;;;5073185;28;20964;-84
2023/10/09 13:33:05;;;;;;;7.23;1.43;;;22.00;97.50;;;;;;5073399;28;20463;-84
2023/10/09 13:35:37;;;;;;;12.20;2.00;;;22.00;97.50;;;;;;5073429;28;20444;-83
2023/10/09 13:38:08;;;;;;;2.20;1.13;;;21.90;97.90;;;;;;5073415;28;20428;-83
2023/10/09 13:40:37;;;;;;;2.60;1.27;;;21.90;96.90;;;;;;5073376;28;20487;-84
2023/10/09 13:43:05;;;;;;;9.13;1.10;;;21.90;97.60;;;;;;5073200;28;20492;-83
2023/10/09 13:45:33;;;;;;;5.73;1.30;;;21.80;98.10;;;;;;5073312;28;20456;-83
2023/10/09 13:48:04;;;;;;;3.47;1.10;;;21.80;98.50;;;;;;5073290;28;20498;-84
2023/10/09 13:50:32;;;;;;;2.57;1.30;;;21.70;98.60;;;;;;5072935;28;20899;-83
2023/10/09 13:53:03;;;;;;;6.20;0.77;;;21.60;96.20;;;;;;5073184;28;20522;-83
2023/10/09 13:55:31;;;;;;;5.73;1.07;;;21.60;96.50;;;;;;5073229;28;20429;-84
2023/10/09 13:57:58;;;;;;;2.20;1.37;;;21.50;95.80;;;;;;5073262;28;20786;-83
2023/10/09 14:00:33;;;;;;;4.40;0.80;;;21.50;93.40;;;;;;5074253;28;20452;-82
2023/10/09 14:03:03;;;;;;;8.10;2.17;;;21.50;93.80;;;;;;5073099;28;20515;-82
2023/10/09 14:05:37;;;;;;;9.33;1.53;;;21.50;94.10;;;;;;5072883;28;20526;-82
2023/10/09 14:08:08;;;;;;;2.90;1.10;;;21.40;93.90;;;;;;5073154;28;20450;-81
2023/10/09 14:10:38;;;;;;;4.20;1.43;;;21.40;93.60;;;;;;5073058;28;20878;-82
2023/10/09 14:13:12;;;;;;;1.43;0.73;;;21.40;94.20;;;;;;5076622;28;20496;-82